createdAt,value
2018-01-05T01:37:39.815Z,7.85
2018-01-05T01:37:40.383Z,7.87
2018-01-05T01:37:40.987Z,7.87
2018-01-05T01:37:41.583Z,7.89
2018-01-05T01:37:42.183Z,7.90
2018-01-05T01:37:42.783Z,7.92
2018-01-05T01:37:43.384Z,7.84
2018-01-05T01:37:43.983Z,7.85
2018-01-05T01:37:44.582Z,7.90
2018-01-05T01:37:45.187Z,7.84
2018-01-05T01:37:45.782Z,7.82
2018-01-05T01:37:46.382Z,7.90
2018-01-05T01:40:18.684Z,7.78
2018-01-05T01:40:19.270Z,7.78
2018-01-05T01:40:19.872Z,7.89
2018-01-05T01:40:20.471Z,7.79
2018-01-05T01:40:21.070Z,7.79
2018-01-05T01:40:21.670Z,7.79
2018-01-05T01:40:22.278Z,7.81
2018-01-05T01:40:22.873Z,7.81
2018-01-05T01:40:23.469Z,7.82
2018-01-05T01:40:24.071Z,7.81
2018-01-05T01:40:24.670Z,7.79
2018-01-05T01:40:25.271Z,7.81
2018-01-05T01:41:20.777Z,7.79
2018-01-05T01:41:21.367Z,7.81
2018-01-05T01:41:21.969Z,7.81
2018-01-05T01:41:22.570Z,7.75
2018-01-05T01:41:23.167Z,7.78
2018-01-05T01:41:23.766Z,7.79
2018-01-05T01:41:24.366Z,7.81
2018-01-05T01:42:17.938Z,7.79
2018-01-05T01:42:18.509Z,7.72
2018-01-05T01:42:19.110Z,7.77
2018-01-05T01:42:19.708Z,7.71
2018-01-05T01:42:20.307Z,7.72
2018-01-05T01:42:20.913Z,7.75
2018-01-05T01:42:21.508Z,7.75
2018-01-05T01:42:22.120Z,7.77
2018-01-05T01:43:17.104Z,7.71
2018-01-05T01:43:17.696Z,7.74
2018-01-05T01:43:18.327Z,7.72
2018-01-05T01:43:18.897Z,7.77
2018-01-05T01:43:19.497Z,7.75
2018-01-05T01:43:20.097Z,7.77
2018-01-05T01:44:14.137Z,7.67
2018-01-05T01:44:14.733Z,7.78
2018-01-05T01:44:15.338Z,7.72
2018-01-05T01:44:15.933Z,7.72
2018-01-05T01:44:16.533Z,7.75
2018-01-05T01:44:17.134Z,7.75
2018-01-05T01:44:17.733Z,7.71
2018-01-05T01:44:18.332Z,7.75
2018-01-05T01:45:16.811Z,7.74
2018-01-05T01:45:17.402Z,7.74
2018-01-05T01:45:18.004Z,7.71
2018-01-05T01:45:18.601Z,7.74
2018-01-05T01:45:19.208Z,7.71
2018-01-05T01:45:19.800Z,7.72
2018-01-05T01:45:20.401Z,7.77
2018-01-05T01:45:21.029Z,7.71
2018-01-05T01:45:21.600Z,7.72
2018-01-05T01:45:22.201Z,7.72
2018-01-05T01:45:22.805Z,7.72
2018-01-05T01:45:23.405Z,7.74
2018-01-05T01:45:24.002Z,7.71
2018-01-05T01:45:24.599Z,7.69
2018-01-05T01:45:25.198Z,7.74
2018-01-05T01:45:25.797Z,7.74
2018-01-05T01:45:26.405Z,7.74
2018-01-05T01:46:20.916Z,7.75
2018-01-05T01:46:21.507Z,7.69
2018-01-05T01:46:22.123Z,7.71
2018-01-05T01:46:22.705Z,7.71
2018-01-05T01:46:23.307Z,7.71
2018-01-05T01:46:23.909Z,7.67
2018-01-05T01:46:24.505Z,7.72
2018-01-05T01:47:18.118Z,7.77
2018-01-05T01:47:18.646Z,7.78
2018-01-05T01:47:19.247Z,7.71
2018-01-05T01:47:19.844Z,7.75
2018-01-05T01:47:20.444Z,7.74
2018-01-05T01:47:21.046Z,7.75
2018-01-05T01:47:21.645Z,7.71
2018-01-05T01:47:22.242Z,7.79
2018-01-05T01:48:27.300Z,7.71
2018-01-05T01:48:27.870Z,7.71
2018-01-05T01:48:28.475Z,7.72
2018-01-05T01:48:29.068Z,7.72
2018-01-05T01:48:29.702Z,7.72
2018-01-05T01:48:30.286Z,7.67
2018-01-05T01:49:25.746Z,7.67
2018-01-05T01:49:26.343Z,7.71
2018-01-05T01:49:26.942Z,7.67
2018-01-05T01:49:27.542Z,7.72
2018-01-05T01:49:28.144Z,7.71
2018-01-05T01:49:28.798Z,7.78
2018-01-05T01:50:25.757Z,7.63
2018-01-05T01:50:26.359Z,7.71
2018-01-05T01:50:26.949Z,7.69
2018-01-05T01:51:21.992Z,7.62
2018-01-05T01:51:22.572Z,7.66
2018-01-05T01:51:23.166Z,7.69
2018-01-05T01:51:23.763Z,7.66
2018-01-05T01:51:24.365Z,7.62
2018-01-05T01:51:24.965Z,7.66
2018-01-05T01:51:25.565Z,7.71
2018-01-05T01:52:19.574Z,7.67
2018-01-05T01:52:20.115Z,7.66
2018-01-05T01:52:20.731Z,7.62
2018-01-05T01:52:21.328Z,7.62
2018-01-05T01:52:21.913Z,7.67
2018-01-05T01:52:22.514Z,7.66
2018-01-05T01:52:23.138Z,7.60
2018-01-05T01:53:46.574Z,7.66
2018-01-05T01:53:47.155Z,7.66
2018-01-05T01:53:47.756Z,7.58
2018-01-05T01:53:48.353Z,7.67
2018-01-05T01:53:48.974Z,7.63
2018-01-05T01:53:49.553Z,7.60
2018-01-05T01:53:50.162Z,7.66
2018-01-05T01:54:54.277Z,7.58
2018-01-05T01:54:54.840Z,7.62
2018-01-05T01:54:55.443Z,7.63
2018-01-05T01:54:56.040Z,7.52
2018-01-05T01:54:56.640Z,7.60
2018-01-05T01:54:57.251Z,7.50
2018-01-05T01:54:57.839Z,7.56
2018-01-05T01:55:51.389Z,7.58
2018-01-05T01:55:51.992Z,7.69
2018-01-05T01:55:52.584Z,7.58
2018-01-05T01:55:53.183Z,7.63
2018-01-05T01:55:53.781Z,7.59
2018-01-05T01:55:54.383Z,7.67
2018-01-05T01:55:54.983Z,7.59
2018-01-05T01:55:55.581Z,7.60
2018-01-05T01:57:11.568Z,7.55
2018-01-05T01:57:12.162Z,7.63
2018-01-05T01:57:12.763Z,7.62
2018-01-05T01:57:13.363Z,7.58
2018-01-05T01:57:13.963Z,7.60
2018-01-05T01:57:14.562Z,7.58
2018-01-05T01:58:08.638Z,7.63
2018-01-05T01:58:09.199Z,7.62
2018-01-05T01:58:09.800Z,7.66
2018-01-05T01:58:10.400Z,7.60
2018-01-05T01:58:11.000Z,7.66
2018-01-05T01:58:11.599Z,7.62
2018-01-05T01:58:12.198Z,7.62
2018-01-05T01:58:12.801Z,7.66
2018-01-05T01:59:06.769Z,7.60
2018-01-05T01:59:07.363Z,7.63
2018-01-05T01:59:07.968Z,7.60
2018-01-05T01:59:08.563Z,7.66
2018-01-05T01:59:09.161Z,7.69
2018-01-05T01:59:09.762Z,7.72
2018-01-05T01:59:10.380Z,7.60
2018-01-05T02:00:11.383Z,7.62
2018-01-05T02:00:11.977Z,7.71
2018-01-05T02:00:12.578Z,7.69
2018-01-05T02:00:13.177Z,7.66
2018-01-05T02:00:13.780Z,7.75
2018-01-05T02:00:14.378Z,7.63
2018-01-05T02:00:14.977Z,7.77
2018-01-05T02:00:15.575Z,7.67
2018-01-05T02:00:16.175Z,7.72
2018-01-05T02:00:16.777Z,7.71
2018-01-05T02:00:17.379Z,7.63
2018-01-05T02:00:17.975Z,7.78
2018-01-05T02:01:11.542Z,7.72
2018-01-05T02:01:12.129Z,7.82
2018-01-05T02:01:12.687Z,7.72
2018-01-05T02:01:13.291Z,7.72
2018-01-05T02:01:13.886Z,7.75
2018-01-05T02:01:14.484Z,7.72
2018-01-05T02:01:15.085Z,7.75
2018-01-05T02:01:15.685Z,7.75
2018-01-05T02:02:14.163Z,7.75
2018-01-05T02:02:14.756Z,7.74
2018-01-05T02:02:15.359Z,7.75
2018-01-05T02:02:15.956Z,7.77
2018-01-05T02:02:16.554Z,7.82
2018-01-05T02:02:17.156Z,7.77
2018-01-05T02:02:17.754Z,7.75
2018-01-05T02:02:18.354Z,7.77
2018-01-05T02:02:18.953Z,7.74
2018-01-05T02:02:19.561Z,7.75
2018-01-05T02:02:20.155Z,7.75
2018-01-05T02:02:20.756Z,7.78
2018-01-05T02:02:21.354Z,7.77
2018-01-05T02:02:21.952Z,7.78
2018-01-05T02:02:22.554Z,7.75
2018-01-05T02:02:23.153Z,7.75
2018-01-05T02:52:23.741Z,7.63
2018-01-05T02:52:24.312Z,7.67
2018-01-05T02:52:24.918Z,7.78
2018-01-05T02:52:25.511Z,7.63
2018-01-05T02:52:26.112Z,7.71
2018-01-05T02:52:26.711Z,7.75
2018-01-05T02:53:22.187Z,7.77
2018-01-05T02:53:22.780Z,7.78
2018-01-05T02:53:23.382Z,7.74
2018-01-05T02:53:23.986Z,7.72
2018-01-05T02:53:24.583Z,7.63
2018-01-05T02:53:25.181Z,7.72
2018-01-05T02:54:19.237Z,7.81
2018-01-05T02:54:19.822Z,7.77
2018-01-05T02:54:20.423Z,7.79
2018-01-05T02:54:21.021Z,7.79
2018-01-05T02:54:21.620Z,7.79
2018-01-05T02:54:22.222Z,7.81
2018-01-05T02:54:22.819Z,7.74
2018-01-05T02:54:23.423Z,7.77
2018-01-05T02:56:55.748Z,7.90
2018-01-05T02:56:56.312Z,7.89
2018-01-05T02:56:56.913Z,7.85
2018-01-05T02:56:57.511Z,7.84
2018-01-05T02:56:58.111Z,7.92
2018-01-05T02:56:58.710Z,7.84
2018-01-05T02:56:59.318Z,7.84
2018-01-05T02:56:59.918Z,7.89
2018-01-05T02:57:00.512Z,7.85
2018-01-05T02:57:01.109Z,7.85
2018-01-05T02:57:01.708Z,7.89
2018-01-05T02:57:02.312Z,7.89
2018-01-05T02:57:56.318Z,7.79
2018-01-05T02:57:56.912Z,7.84
2018-01-05T02:57:57.514Z,7.87
2018-01-05T02:57:58.112Z,7.81
2018-01-05T02:57:58.714Z,7.87
2018-01-05T02:57:59.315Z,7.79
2018-01-05T02:57:59.911Z,7.84
2018-01-05T02:58:00.510Z,7.85
2018-01-05T02:58:53.970Z,7.78
2018-01-05T02:58:54.565Z,7.82
2018-01-05T02:58:55.165Z,7.78
2018-01-05T02:58:55.762Z,7.79
2018-01-05T02:58:56.365Z,7.81
2018-01-05T02:58:56.967Z,7.78
2018-01-05T02:58:57.562Z,7.84
2018-01-05T02:58:58.164Z,7.79
2018-01-05T02:59:57.663Z,7.84
2018-01-05T02:59:58.256Z,7.81
2018-01-05T02:59:58.860Z,7.81
2018-01-05T02:59:59.455Z,7.81
2018-01-05T03:00:00.057Z,7.81
2018-01-05T03:00:00.655Z,7.85
2018-01-05T03:00:01.254Z,7.82
2018-01-05T03:00:01.853Z,7.87
2018-01-05T03:00:02.453Z,7.85
2018-01-05T03:00:03.064Z,7.81
2018-01-05T03:00:03.654Z,7.82
2018-01-05T03:00:04.252Z,7.82
2018-01-05T03:00:04.854Z,7.87
2018-01-05T03:00:05.455Z,7.81
2018-01-05T03:00:06.055Z,7.84
2018-01-05T03:00:06.655Z,7.87
2018-01-05T04:06:24.660Z,8.21
2018-01-05T04:06:25.229Z,8.26
2018-01-05T04:06:25.834Z,8.22
2018-01-05T04:06:26.428Z,8.26
2018-01-05T04:06:27.028Z,8.21
2018-01-05T04:06:27.629Z,8.22
2018-01-05T04:06:28.228Z,8.28
2018-01-05T04:06:28.828Z,8.25
2018-01-05T04:06:29.428Z,8.28
2018-01-05T04:06:30.031Z,8.26
2018-01-05T04:06:30.628Z,8.26
2018-01-05T04:06:31.229Z,8.21
2018-01-05T04:06:31.833Z,8.22
2018-01-05T04:06:32.426Z,8.21
2018-01-05T04:06:33.026Z,8.22
2018-01-05T04:07:28.535Z,8.26
2018-01-05T04:07:29.134Z,8.20
2018-01-05T04:07:29.729Z,8.26
2018-01-05T04:07:30.327Z,8.28
2018-01-05T04:07:30.926Z,8.29
2018-01-05T04:07:31.529Z,8.25
2018-01-05T04:08:33.050Z,8.20
2018-01-05T04:08:33.640Z,8.22
2018-01-05T04:08:34.243Z,8.28
2018-01-05T04:08:34.840Z,8.25
2018-01-05T04:08:35.446Z,8.28
2018-01-05T04:08:36.040Z,8.26
2018-01-05T04:08:36.638Z,8.26
2018-01-05T04:08:37.241Z,8.25
2018-01-05T04:08:37.839Z,8.28
2018-01-05T04:08:38.441Z,8.25
2018-01-05T04:08:39.038Z,8.30
2018-01-05T04:08:39.638Z,8.26
2018-01-05T04:09:37.155Z,8.21
2018-01-05T04:09:37.745Z,8.32
2018-01-05T04:09:38.344Z,8.22
2018-01-05T04:11:05.349Z,8.21
2018-01-05T04:11:05.915Z,8.25
2018-01-05T04:13:18.213Z,8.32
2018-01-05T04:13:18.803Z,8.29
2018-01-05T04:13:19.402Z,8.25
2018-01-05T04:13:20.003Z,8.25
2018-01-05T04:13:20.600Z,8.30
2018-01-05T04:13:21.206Z,8.28
2018-01-05T04:13:21.797Z,8.26
2018-01-05T04:13:22.399Z,8.28
2018-01-05T04:13:22.999Z,8.32
2018-01-05T04:13:23.598Z,8.28
2018-01-05T04:13:24.201Z,8.28
2018-01-05T04:13:24.801Z,8.28
2018-01-05T04:14:23.874Z,8.26
2018-01-05T04:14:24.469Z,8.21
2018-01-05T04:14:25.070Z,8.21
2018-01-05T04:14:25.667Z,8.28
2018-01-05T04:14:26.270Z,8.28
2018-01-05T04:14:26.870Z,8.32
2018-01-05T04:14:27.467Z,8.32
2018-01-05T04:14:28.070Z,8.29
2018-01-05T04:14:28.668Z,8.26
2018-01-05T04:14:29.267Z,8.26
2018-01-05T04:14:29.867Z,8.26
2018-01-05T04:14:30.467Z,8.26
2018-01-05T04:14:31.069Z,8.28
2018-01-05T04:14:31.666Z,8.26
2018-01-05T04:14:32.269Z,8.25
2018-01-05T04:14:32.890Z,8.30
2018-01-05T04:16:10.914Z,8.28
2018-01-05T04:16:11.481Z,8.30
2018-01-05T04:16:12.080Z,8.33
2018-01-05T04:16:12.677Z,8.36
2018-01-05T04:16:13.277Z,8.32
2018-01-05T04:16:13.879Z,8.30
2018-01-05T04:16:14.476Z,8.32
2018-01-05T04:16:15.079Z,8.30
2018-01-05T04:16:15.677Z,8.29
2018-01-05T04:16:16.277Z,8.25
2018-01-05T04:16:16.876Z,8.36
2018-01-05T04:16:17.477Z,8.28
2018-01-05T04:16:18.077Z,8.32
2018-01-05T04:16:18.677Z,8.32
2018-01-05T04:16:19.291Z,8.33
2018-01-05T04:16:19.874Z,8.33
2018-01-05T04:16:20.473Z,8.29
2018-01-05T04:17:16.929Z,8.33
2018-01-05T04:17:17.527Z,8.33
2018-01-05T04:17:18.126Z,8.30
2018-01-05T04:18:14.582Z,8.33
2018-01-05T04:18:15.178Z,8.37
2018-01-05T04:18:15.778Z,8.35
2018-01-05T04:19:09.775Z,8.36
2018-01-05T04:19:10.371Z,8.36
2018-01-05T04:19:10.970Z,8.36
2018-01-05T04:19:11.569Z,8.36
2018-01-05T04:19:12.170Z,8.36
2018-01-05T04:19:12.771Z,8.33
2018-01-05T04:19:13.371Z,8.35
2018-01-05T04:20:09.885Z,8.40
2018-01-05T04:20:10.481Z,8.36
2018-01-05T04:20:11.081Z,8.37
2018-01-05T04:21:04.567Z,8.35
2018-01-05T04:21:05.162Z,8.37
2018-01-05T04:21:05.763Z,8.37
2018-01-05T04:21:06.366Z,8.42
2018-01-05T04:21:06.962Z,8.40
2018-01-05T04:21:07.562Z,8.35
2018-01-05T04:21:08.161Z,8.39
2018-01-05T04:21:08.765Z,8.40
2018-01-05T04:22:02.763Z,8.36
2018-01-05T04:22:03.335Z,8.35
2018-01-05T04:22:03.928Z,8.42
2018-01-05T04:22:04.533Z,8.37
2018-01-05T04:22:05.124Z,8.40
2018-01-05T04:22:05.727Z,8.44
2018-01-05T04:22:06.326Z,8.40
2018-01-05T04:23:00.410Z,8.44
2018-01-05T04:23:00.981Z,8.48
2018-01-05T04:23:01.586Z,8.47
2018-01-05T04:23:02.190Z,8.40
2018-01-05T04:23:02.780Z,8.50
2018-01-05T04:23:03.380Z,8.47
2018-01-05T04:23:03.979Z,8.48
2018-01-05T04:23:57.527Z,8.44
2018-01-05T04:23:58.123Z,8.44
2018-01-05T04:23:58.722Z,8.32
2018-01-05T04:23:59.323Z,8.37
2018-01-05T04:23:59.922Z,8.39
2018-01-05T04:24:00.521Z,8.40
2018-01-05T04:24:01.120Z,8.42
2018-01-05T04:24:01.733Z,8.44
2018-01-05T04:24:55.178Z,8.44
2018-01-05T04:24:55.772Z,8.45
2018-01-05T04:24:56.373Z,8.45
2018-01-05T04:24:56.972Z,8.45
2018-01-05T04:24:57.572Z,8.44
2018-01-05T04:24:58.172Z,8.39
2018-01-05T04:24:58.770Z,8.33
2018-01-05T04:24:59.374Z,8.47
2018-01-05T04:25:54.364Z,8.42
2018-01-05T04:25:54.959Z,8.40
2018-01-05T04:25:55.560Z,8.44
2018-01-05T04:25:56.160Z,8.44
2018-01-05T04:25:56.759Z,8.44
2018-01-05T04:25:57.360Z,8.45
2018-01-05T04:25:57.957Z,8.40
2018-01-05T04:26:51.913Z,8.47
2018-01-05T04:26:52.510Z,8.44
2018-01-05T04:26:53.110Z,8.51
2018-01-05T04:26:53.711Z,8.42
2018-01-05T04:26:54.310Z,8.40
2018-01-05T04:26:54.909Z,8.44
2018-01-05T04:26:55.507Z,8.47
2018-01-05T04:27:49.078Z,8.47
2018-01-05T04:27:49.652Z,8.42
2018-01-05T04:27:50.274Z,8.39
2018-01-05T04:27:50.848Z,8.44
2018-01-05T04:27:51.452Z,8.45
2018-01-05T04:27:52.048Z,8.45
2018-01-05T04:27:52.648Z,8.45
2018-01-05T04:27:53.252Z,8.44
2018-01-05T04:28:49.776Z,8.39
2018-01-05T04:28:50.375Z,8.47
2018-01-05T04:28:50.973Z,8.39
2018-01-05T04:29:44.971Z,8.44
2018-01-05T04:29:45.565Z,8.42
2018-01-05T04:29:46.166Z,8.44
2018-01-05T04:29:46.768Z,8.39
2018-01-05T04:29:47.364Z,8.40
2018-01-05T04:29:47.965Z,8.42
2018-01-05T04:29:48.564Z,8.42
2018-01-05T04:30:42.523Z,8.48
2018-01-05T04:30:43.118Z,8.47
2018-01-05T04:30:43.717Z,8.44
2018-01-05T04:30:44.314Z,8.51
2018-01-05T04:30:44.915Z,8.37
2018-01-05T04:30:45.516Z,8.48
2018-01-05T04:30:46.115Z,8.42
2018-01-05T04:31:41.091Z,8.37
2018-01-05T04:31:41.692Z,8.45
2018-01-05T04:31:42.289Z,8.47
2018-01-05T04:31:42.889Z,8.50
2018-01-05T04:31:43.488Z,8.45
2018-01-05T04:31:44.088Z,8.42
2018-01-05T04:31:44.688Z,8.40
2018-01-05T04:32:38.260Z,8.36
2018-01-05T04:32:38.829Z,8.47
2018-01-05T04:32:39.428Z,8.45
2018-01-05T04:32:40.029Z,8.47
2018-01-05T04:32:40.627Z,8.44
2018-01-05T04:32:41.228Z,8.42
2018-01-05T04:32:41.828Z,8.44
2018-01-05T04:32:42.430Z,8.45
2018-01-05T04:33:35.886Z,8.48
2018-01-05T04:33:36.481Z,8.48
2018-01-05T04:33:37.079Z,8.40
2018-01-05T04:33:37.692Z,8.45
2018-01-05T04:33:38.280Z,8.53
2018-01-05T04:33:38.881Z,8.47
2018-01-05T04:33:39.478Z,8.47
2018-01-05T04:33:40.082Z,8.50
2018-01-05T04:34:56.679Z,8.48
2018-01-05T04:34:57.278Z,8.44
2018-01-05T04:34:57.873Z,8.48
2018-01-05T04:35:52.897Z,8.44
2018-01-05T04:35:53.492Z,8.50
2018-01-05T04:35:54.091Z,8.44
2018-01-05T04:35:54.692Z,8.47
2018-01-05T04:35:55.292Z,8.42
2018-01-05T04:35:55.892Z,8.48
2018-01-05T04:35:56.490Z,8.47
2018-01-05T04:36:50.042Z,8.47
2018-01-05T04:36:50.632Z,8.48
2018-01-05T04:36:51.234Z,8.44
2018-01-05T04:36:51.834Z,8.42
2018-01-05T04:36:52.433Z,8.50
2018-01-05T04:36:53.032Z,8.50
2018-01-05T04:36:53.632Z,8.44
2018-01-05T04:36:54.234Z,8.47
2018-01-05T04:37:52.731Z,8.47
2018-01-05T04:37:53.304Z,8.50
2018-01-05T04:37:53.907Z,8.42
2018-01-05T04:37:54.502Z,8.51
2018-01-05T04:37:55.102Z,8.50
2018-01-05T04:37:55.701Z,8.45
2018-01-05T04:37:56.305Z,8.40
2018-01-05T04:37:56.907Z,8.50
2018-01-05T04:37:57.501Z,8.44
2018-01-05T04:37:58.124Z,8.51
2018-01-05T04:37:58.698Z,8.51
2018-01-05T04:37:59.301Z,8.51
2018-01-05T04:37:59.900Z,8.51
2018-01-05T04:38:00.500Z,8.51
2018-01-05T04:38:01.116Z,8.48
2018-01-05T04:38:01.727Z,8.48
2018-01-05T05:08:43.017Z,8.25
2018-01-05T05:08:43.543Z,8.20
2018-01-05T05:08:44.118Z,8.22
2018-01-05T05:08:44.715Z,8.21
2018-01-05T05:08:45.314Z,8.15
2018-01-05T05:08:45.914Z,8.22
2018-01-05T06:06:26.366Z,7.47
2018-01-05T06:06:26.869Z,7.42
2018-01-05T06:06:27.468Z,7.45
2018-01-05T06:06:28.066Z,7.41
2018-01-05T06:06:28.668Z,7.45
2018-01-05T06:06:29.265Z,7.45
2018-01-05T07:08:39.320Z,6.54
2018-01-05T07:08:39.878Z,6.62
2018-01-05T07:08:40.477Z,6.56
2018-01-05T07:08:41.076Z,6.58
2018-01-05T07:08:41.680Z,6.58
2018-01-05T07:08:42.315Z,6.58
2018-01-05T07:08:42.955Z,6.54
2018-01-05T07:08:43.503Z,6.53
2018-01-05T07:08:44.294Z,6.56
2018-01-05T07:08:44.673Z,6.56
2018-01-05T07:08:45.271Z,6.59
2018-01-05T07:08:45.871Z,6.58
2018-01-05T07:08:46.473Z,6.59
2018-01-05T08:18:57.227Z,7.34
2018-01-05T08:18:57.788Z,7.31
2018-01-05T08:18:58.388Z,7.37
2018-01-05T08:18:58.986Z,7.37
2018-01-05T09:21:38.200Z,8.47
2018-01-05T09:21:38.766Z,8.47
2018-01-05T09:21:39.363Z,8.42
2018-01-05T09:21:39.964Z,8.47
2018-01-05T09:21:40.563Z,8.44
2018-01-05T09:21:41.163Z,8.40
2018-01-05T09:21:41.763Z,8.48
2018-01-05T09:21:42.366Z,8.42
2018-01-05T09:21:42.964Z,8.48
2018-01-05T09:21:43.562Z,8.51
2018-01-05T09:21:44.166Z,8.44
2018-01-05T09:21:44.761Z,8.45
2018-01-05T09:21:45.362Z,8.42
2018-01-05T09:32:36.574Z,8.66
2018-01-05T10:29:16.257Z,8.87
2018-01-05T10:29:16.763Z,8.75
2018-01-05T10:29:17.363Z,8.94
2018-01-05T10:29:17.962Z,8.83
2018-01-05T10:29:18.562Z,8.84
2018-01-05T10:31:20.862Z,9.04
2018-01-05T10:31:21.455Z,8.97
2018-01-05T10:31:22.053Z,8.97
2018-01-05T10:31:22.651Z,9.02
2018-01-05T10:31:23.253Z,8.97
2018-01-05T10:31:23.862Z,8.99
2018-01-05T10:31:24.453Z,9.04
2018-01-05T10:31:25.052Z,9.04
2018-01-05T10:31:25.685Z,9.02
2018-01-05T10:31:26.254Z,9.02
2018-01-05T10:31:26.851Z,9.06
2018-01-05T10:31:27.569Z,9.05
2018-01-05T10:32:36.505Z,9.01
2018-01-05T10:32:37.106Z,9.04
2018-01-05T10:32:37.702Z,9.06
2018-01-05T10:32:38.302Z,9.02
2018-01-05T10:32:38.903Z,9.02
2018-01-05T10:32:39.502Z,8.97
2018-01-05T10:32:40.101Z,9.02
2018-01-05T10:32:40.702Z,8.99
2018-01-05T10:32:41.303Z,8.99
2018-01-05T10:32:41.900Z,9.01
2018-01-05T10:32:42.501Z,8.96
2018-01-05T10:32:43.101Z,9.12
2018-01-05T10:32:43.701Z,9.16
2018-01-05T10:32:44.300Z,9.01
2018-01-05T10:32:44.900Z,9.04
2018-01-05T10:32:45.503Z,9.05
2018-01-05T10:33:42.611Z,9.06
2018-01-05T10:33:43.152Z,8.99
2018-01-05T10:33:43.751Z,8.94
2018-01-05T10:34:37.748Z,9.10
2018-01-05T10:34:38.344Z,9.15
2018-01-05T10:34:38.945Z,9.15
2018-01-05T10:34:39.544Z,9.13
2018-01-05T10:34:40.144Z,9.15
2018-01-05T10:34:40.743Z,9.15
2018-01-05T10:34:41.343Z,9.13
2018-01-05T10:35:39.807Z,9.21
2018-01-05T10:35:40.399Z,9.24
2018-01-05T10:35:40.998Z,9.13
2018-01-05T10:35:41.602Z,9.21
2018-01-05T10:35:42.198Z,9.27
2018-01-05T10:35:42.799Z,9.23
2018-01-05T10:35:43.399Z,9.16
2018-01-05T10:35:43.998Z,9.23
2018-01-05T10:35:44.602Z,9.27
2018-01-05T10:35:45.230Z,9.21
2018-01-05T10:35:45.841Z,9.23
2018-01-05T10:35:46.432Z,9.21
2018-01-05T10:35:46.996Z,9.30
2018-01-05T10:35:47.596Z,9.27
2018-01-05T10:35:48.196Z,9.24
2018-01-05T10:35:48.796Z,9.27
2018-01-05T10:35:49.395Z,9.31
2018-01-05T10:36:43.917Z,9.23
2018-01-05T10:36:44.501Z,9.31
2018-01-05T10:36:45.108Z,9.28
2018-01-05T10:36:45.702Z,9.25
2018-01-05T10:36:46.302Z,9.27
2018-01-05T10:36:46.900Z,9.25
2018-01-05T10:36:47.500Z,9.28
2018-01-05T10:37:42.056Z,9.28
2018-01-05T10:37:42.563Z,9.24
2018-01-05T10:37:43.161Z,9.31
2018-01-05T10:37:43.761Z,9.28
2018-01-05T10:37:44.360Z,9.30
2018-01-05T10:37:44.965Z,9.30
2018-01-05T10:37:45.570Z,9.31
2018-01-05T10:37:46.164Z,9.27
2018-01-05T10:38:47.229Z,9.24
2018-01-05T10:38:47.805Z,9.21
2018-01-05T10:38:48.392Z,9.23
2018-01-05T10:38:48.991Z,9.23
2018-01-05T10:38:49.594Z,9.21
2018-01-05T10:38:50.196Z,9.25
2018-01-05T10:38:50.796Z,9.24
2018-01-05T10:38:52.194Z,9.27
2018-01-05T10:38:52.699Z,9.24
2018-01-05T10:38:53.298Z,9.27
2018-01-05T10:38:53.899Z,9.24
2018-01-05T10:39:48.944Z,9.28
2018-01-05T10:39:49.541Z,9.30
2018-01-05T10:39:50.149Z,9.30
2018-01-05T10:39:50.740Z,9.27
2018-01-05T10:39:51.341Z,9.25
2018-01-05T10:39:51.942Z,9.27
2018-01-05T10:40:47.414Z,9.25
2018-01-05T10:40:48.009Z,9.25
2018-01-05T10:40:48.611Z,9.27
2018-01-05T10:40:49.210Z,9.31
2018-01-05T10:40:49.810Z,9.27
2018-01-05T10:40:50.410Z,9.28
2018-01-05T10:42:38.931Z,9.42
2018-01-05T10:42:39.529Z,9.30
2018-01-05T10:42:40.125Z,9.35
2018-01-05T10:42:40.726Z,9.42
2018-01-05T10:42:41.327Z,9.35
2018-01-05T10:42:41.926Z,9.35
2018-01-05T10:42:42.526Z,9.40
2018-01-05T10:42:43.125Z,9.34
2018-01-05T10:42:43.728Z,9.39
2018-01-05T10:42:44.324Z,9.45
2018-01-05T10:42:44.925Z,9.40
2018-01-05T10:42:45.524Z,9.42
2018-01-05T10:42:46.137Z,9.39
2018-01-05T10:42:46.727Z,9.43
2018-01-05T10:42:47.324Z,9.31
2018-01-05T10:42:47.927Z,9.46
2018-01-05T10:42:48.523Z,9.32
2018-01-05T10:43:42.011Z,9.42
2018-01-05T10:43:42.608Z,9.48
2018-01-05T10:43:43.206Z,9.43
2018-01-05T10:43:43.806Z,9.43
2018-01-05T10:43:44.405Z,9.35
2018-01-05T10:43:45.007Z,9.38
2018-01-05T10:43:45.611Z,9.43
2018-01-05T10:43:46.237Z,9.42
2018-01-05T10:45:00.286Z,9.39
2018-01-05T10:45:00.793Z,9.38
2018-01-05T10:45:01.390Z,9.46
2018-01-05T10:45:01.990Z,9.35
2018-01-05T10:45:02.602Z,9.40
2018-01-05T10:45:03.191Z,9.43
2018-01-05T10:45:03.788Z,9.45
2018-01-05T10:47:16.099Z,9.45
2018-01-05T10:47:16.689Z,9.49
2018-01-05T10:47:17.288Z,9.48
2018-01-05T10:47:17.886Z,9.45
2018-01-05T10:47:18.486Z,9.40
2018-01-05T10:47:19.086Z,9.48
2018-01-05T10:47:19.687Z,9.46
2018-01-05T10:47:20.286Z,9.46
2018-01-05T10:47:20.887Z,9.46
2018-01-05T10:47:21.487Z,9.45
2018-01-05T10:47:22.088Z,9.40
2018-01-05T10:47:22.690Z,9.49
2018-01-05T10:48:17.261Z,9.42
2018-01-05T10:48:17.861Z,9.40
2018-01-05T10:48:18.459Z,9.45
2018-01-05T10:48:19.057Z,9.42
2018-01-05T10:48:19.660Z,9.43
2018-01-05T10:48:20.257Z,9.46
2018-01-05T10:48:20.856Z,9.43
2018-01-05T10:49:15.835Z,9.50
2018-01-05T10:49:16.435Z,9.49
2018-01-05T10:49:17.030Z,9.56
2018-01-05T10:49:17.644Z,9.50
2018-01-05T10:49:18.295Z,9.49
2018-01-05T10:49:18.863Z,9.52
2018-01-05T11:09:57.568Z,9.32
2018-01-05T11:09:58.157Z,9.38
2018-01-05T11:09:58.738Z,9.30
2018-01-05T11:09:59.375Z,9.40
2018-01-05T11:09:59.960Z,9.38
2018-01-05T11:10:00.579Z,9.32
2018-01-05T11:10:01.134Z,9.30
2018-01-05T11:10:01.736Z,9.39
2018-01-05T11:10:55.198Z,9.32
2018-01-05T11:10:55.793Z,9.28
2018-01-05T11:10:56.393Z,9.30
2018-01-05T11:10:56.994Z,9.35
2018-01-05T11:10:57.591Z,9.28
2018-01-05T11:10:58.189Z,9.35
2018-01-05T11:10:58.793Z,9.32
2018-01-05T11:10:59.391Z,9.31
2018-01-05T11:11:52.880Z,9.45
2018-01-05T11:11:53.444Z,9.34
2018-01-05T11:11:54.046Z,9.30
2018-01-05T11:11:54.643Z,9.31
2018-01-05T11:11:55.244Z,9.39
2018-01-05T11:11:55.842Z,9.45
2018-01-05T11:11:56.441Z,9.35
2018-01-05T11:11:57.042Z,9.31
2018-01-05T11:12:50.501Z,9.32
2018-01-05T11:12:51.094Z,9.31
2018-01-05T11:12:51.694Z,9.39
2018-01-05T11:12:52.296Z,9.31
2018-01-05T11:12:52.897Z,9.39
2018-01-05T11:12:53.494Z,9.39
2018-01-05T11:12:54.097Z,9.39
2018-01-05T11:12:54.694Z,9.40
2018-01-05T11:13:48.154Z,9.27
2018-01-05T11:13:48.748Z,9.42
2018-01-05T11:13:49.351Z,9.39
2018-01-05T11:13:49.948Z,9.28
2018-01-05T11:13:50.546Z,9.35
2018-01-05T11:13:51.149Z,9.42
2018-01-05T11:13:51.748Z,9.31
2018-01-05T11:13:52.359Z,9.35
2018-01-05T11:14:48.878Z,9.28
2018-01-05T11:14:49.470Z,9.34
2018-01-05T11:14:50.070Z,9.25
2018-01-05T11:15:44.580Z,9.30
2018-01-05T11:15:45.177Z,9.28
2018-01-05T11:15:45.777Z,9.28
2018-01-05T11:15:46.458Z,9.30
2018-01-05T11:15:46.978Z,9.30
2018-01-05T11:15:47.579Z,9.34
2018-01-05T11:15:48.178Z,9.30
2018-01-05T11:15:48.783Z,9.25
2018-01-05T11:16:43.258Z,9.25
2018-01-05T11:16:43.860Z,9.25
2018-01-05T11:16:44.453Z,9.28
2018-01-05T11:16:45.053Z,9.25
2018-01-05T11:16:45.673Z,9.27
2018-01-05T11:16:46.253Z,9.28
2018-01-05T11:16:46.851Z,9.28
2018-01-05T11:16:47.451Z,9.28
2018-01-05T11:17:42.509Z,9.23
2018-01-05T11:17:43.076Z,9.27
2018-01-05T11:17:43.641Z,9.25
2018-01-05T11:17:44.240Z,9.25
2018-01-05T11:17:44.861Z,9.23
2018-01-05T11:17:45.439Z,9.25
2018-01-05T11:18:41.020Z,9.27
2018-01-05T11:18:41.614Z,9.23
2018-01-05T11:18:42.228Z,9.23
2018-01-05T11:18:42.818Z,9.24
2018-01-05T11:18:43.413Z,9.31
2018-01-05T11:18:44.013Z,9.28
2018-01-05T11:19:38.060Z,9.25
2018-01-05T11:19:38.655Z,9.24
2018-01-05T11:19:39.254Z,9.24
2018-01-05T11:19:39.860Z,9.30
2018-01-05T11:19:40.453Z,9.25
2018-01-05T11:19:41.053Z,9.25
2018-01-05T11:19:41.651Z,9.28
2018-01-05T11:19:42.253Z,9.30
2018-01-05T11:20:36.731Z,9.24
2018-01-05T11:20:37.326Z,9.34
2018-01-05T11:20:37.931Z,9.32
2018-01-05T11:20:38.554Z,9.25
2018-01-05T11:20:39.146Z,9.25
2018-01-05T11:20:39.738Z,9.28
2018-01-05T11:20:40.326Z,9.30
2018-01-05T11:20:40.924Z,9.34
2018-01-05T11:21:34.899Z,9.27
2018-01-05T11:21:35.495Z,9.25
2018-01-05T11:21:36.093Z,9.30
2018-01-05T11:21:36.691Z,9.30
2018-01-05T11:21:37.291Z,9.28
2018-01-05T11:21:37.893Z,9.25
2018-01-05T11:21:38.491Z,9.28
2018-01-05T11:37:18.214Z,9.24
2018-01-05T11:37:18.720Z,9.25
2018-01-05T11:37:19.327Z,9.27
2018-01-05T11:37:19.919Z,9.24
2018-01-05T11:37:20.520Z,9.27
2018-01-05T11:37:21.118Z,9.25
2018-01-05T11:37:21.719Z,9.27
2018-01-05T11:38:16.679Z,9.25
2018-01-05T11:38:17.276Z,9.25
2018-01-05T11:38:17.875Z,9.25
2018-01-05T11:38:18.475Z,9.25
2018-01-05T11:38:19.076Z,9.28
2018-01-05T11:38:19.677Z,9.27
2018-01-05T11:38:20.273Z,9.25
2018-01-05T11:38:20.876Z,9.25
2018-01-05T11:39:14.332Z,9.27
2018-01-05T11:39:14.929Z,9.32